Tim Quigg — WDB6570 — position and weather

sailwx.info

Track history (hours):
 
Tides and Currents Weather Stations Pressure Air Temp Water Temp Dewpoint Dewpoint Depression Visibility Wind Speed Wind Dir Waves Ship Positions

Tim Quigg

Owner: Harley Marine Services, Inc, Seattle, WA. More information available from US FCC via Universal Licensing System and Coast Guard Vessel Documentation Center.

Last reported at 2015-Mar-06 13:33 UTC. Time now 2015-Mar-06 14:17 UTC.
Position N 33°45' W 118°13'.

; draft 7.5 m.

Type: Tug. MMSI: 366926740.

Date/timePositionNaut miles runAvg speedWind from/ knotsBaromVisibWave heightAir tempDewpointWater temp
2015-Mar-06 13:33N 33°45' W 118°13'2 1.5
2015-Mar-06 12:33N 33°45' W 118°14'2 1.5
2015-Mar-06 11:34N 33°44' W 118°13'1 0.6
2015-Mar-06 10:34N 33°45' W 118°13'0 0.0
2015-Mar-06 09:33N 33°45' W 118°13'0 0.0
2015-Mar-06 08:33N 33°45' W 118°13'0 0.5
2015-Mar-06 07:33N 33°45' W 118°13'0 0.1
2015-Mar-06 06:33N 33°45' W 118°13'3 2.5
2015-Mar-06 05:15N 33°44' W 118°10'5 1.7
2015-Mar-06 02:23N 33°44' W 118°16'2 2.0
2015-Mar-06 01:34N 33°43' W 118°14'2 2.3
2015-Mar-06 00:32N 33°45' W 118°12'0 0.0
2015-Mar-05 23:32N 33°45' W 118°12'1 1.5
2015-Mar-05 22:33N 33°46' W 118°13'0 0.5
2015-Mar-05 21:33N 33°46' W 118°13'2 0.7
2015-Mar-05 18:33N 33°46' W 118°16'2 1.2
2015-Mar-05 17:06N 33°44' W 118°16'0 0.0
2015-Mar-05 16:21N 33°44' W 118°16'0 0.0
2015-Mar-05 15:33N 33°44' W 118°16'1 0.9
2015-Mar-05 14:33N 33°43' W 118°16'2 2.5
2015-Mar-05 13:33N 33°45' W 118°16'3 3.0
2015-Mar-05 12:33N 33°43' W 118°15'1 1.4
2015-Mar-05 11:33N 33°44' W 118°16'0 0.2
2015-Mar-05 10:33N 33°44' W 118°16'2 2.0
2015-Mar-05 09:23N 33°44' W 118°13'2 2.8
2015-Mar-05 08:32N 33°44' W 118°16'0 0.1
2015-Mar-05 07:29N 33°44' W 118°16'0 0.0
2015-Mar-05 05:26N 33°44' W 118°16'0 0.0
2015-Mar-05 03:33N 33°44' W 118°16'0 0.2
2015-Mar-05 02:34N 33°44' W 118°16'3 2.9
2015-Mar-05 01:33N 33°46' W 118°13'0 0.0
2015-Mar-05 00:33N 33°46' W 118°13'1 1.4
2015-Mar-04 23:33N 33°45' W 118°12'0 0.0
2015-Mar-04 22:32N 33°45' W 118°12'0 0.0
2015-Mar-04 21:17N 33°45' W 118°12'0 0.0
2015-Mar-04 20:33N 33°45' W 118°12'0 0.0
2015-Mar-04 19:32N 33°45' W 118°12'1 0.9
2015-Mar-04 18:33N 33°45' W 118°13'0 0.1
2015-Mar-04 14:28N 33°45' W 118°12'1 0.9
2015-Mar-04 13:33N 33°45' W 118°13'1 0.7
2015-Mar-04 12:33N 33°46' W 118°13'1 1.1
2015-Mar-04 11:34N 33°45' W 118°13'0 0.0
2015-Mar-04 10:33N 33°45' W 118°13'0 0.0
2015-Mar-04 09:34N 33°45' W 118°13'2 0.4
2015-Mar-04 03:33N 33°45' W 118°16'0 0.4
2015-Mar-04 02:32N 33°46' W 118°16'0 0.0
2015-Mar-04 01:33N 33°46' W 118°16'0 0.0
2015-Mar-04 00:31N 33°46' W 118°16'0 0.0
2015-Mar-03 23:14N 33°46' W 118°16'3 2.8
2015-Mar-03 22:18N 33°45' W 118°13'1 0.3
2015-Mar-03 20:14N 33°44' W 118°12'3 4.7
2015-Mar-03 19:33N 33°44' W 118°09'6 3.1
2015-Mar-03 17:33N 33°46' W 118°16'1 0.6
2015-Mar-03 16:04N 33°45' W 118°16'0 0.4
2015-Mar-03 15:28N 33°45' W 118°16'0 0.1
2015-Mar-03 13:33N 33°45' W 118°16'2 0.2
2015-Mar-03 05:07N 33°45' W 118°14'1 1.4
2015-Mar-03 04:33N 33°45' W 118°13'2 0.2
2015-Mar-02 17:33N 33°44' W 118°16'0 0.0
2015-Mar-02 16:07N 33°44' W 118°16'3 4.9
2015-Mar-02 15:33N 33°46' W 118°13'1 1.1
2015-Mar-02 14:33N 33°45' W 118°13'0 0.5
2015-Mar-02 13:33N 33°45' W 118°13'1 0.7
2015-Mar-02 12:33N 33°45' W 118°13'0 0.1
2015-Mar-02 11:33N 33°45' W 118°13'3 2.5
2015-Mar-02 10:26N 33°44' W 118°16'0 0.0
2015-Mar-02 09:32N 33°44' W 118°16'2 1.6
2015-Mar-02 08:33N 33°45' W 118°16'0 0.3
2015-Mar-02 07:33N 33°46' W 118°16'1 0.1
2015-Mar-02 02:04N 33°45' W 118°16'0 0.1
2015-Mar-02 00:07N 33°45' W 118°16'1 0.9
2015-Mar-01 23:33N 33°45' W 118°17'3 0.3
2015-Mar-01 13:32N 33°44' W 118°13'2 2.3
2015-Mar-01 12:33N 33°46' W 118°13'0 0.1
2015-Mar-01 11:33N 33°46' W 118°13'1 0.7
2015-Mar-01 10:33N 33°45' W 118°13'0 0.1
2015-Mar-01 09:33N 33°45' W 118°13'2 1.2
2015-Mar-01 08:05N 33°44' W 118°12'1 1.5
2015-Mar-01 07:33N 33°44' W 118°13'2 0.2
2015-Feb-28 21:30N 33°44' W 118°16'2 2.5
2015-Feb-28 20:33N 33°44' W 118°13'2 1.4
2015-Feb-28 19:17N 33°45' W 118°11'5 6.4
2015-Feb-28 18:33N 33°44' W 118°17'1 0.4
2015-Feb-28 15:25N 33°45' W 118°16'0 0.2
2015-Feb-28 12:19N 33°46' W 118°16'3 3.3
2015-Feb-28 11:33N 33°46' W 118°13'3 0.4
2015-Feb-28 04:11N 33°46' W 118°16'0 0.0
2015-Feb-27 15:33N 33°46' W 118°16'5 4.4
2015-Feb-27 14:18N 33°44' W 118°10'6 5.5
2015-Feb-27 13:15N 33°45' W 118°16'1 1.2
2015-Feb-27 12:33N 33°46' W 118°15'0 0.1
2015-Feb-27 11:33N 33°46' W 118°16'0 0.0
2015-Feb-27 10:31N 33°46' W 118°16'0 0.0
2015-Feb-27 09:33N 33°46' W 118°16'0 0.0
2015-Feb-27 08:33N 33°46' W 118°16'3 2.7
2015-Feb-27 07:32N 33°43' W 118°16'1 0.7
2015-Feb-27 06:33N 33°44' W 118°16'2 1.4
2015-Feb-27 05:26N 33°45' W 118°16'1 0.6
2015-Feb-27 04:32N 33°45' W 118°17'2 2.4
2015-Feb-27 03:34N 33°45' W 118°14'0 0.2
2015-Feb-27 02:33N 33°45' W 118°14'2 2.1
2015-Feb-27 01:33N 33°43' W 118°14'2 1.5
2015-Feb-27 00:33N 33°44' W 118°16'0 0.0
2015-Feb-26 23:06N 33°44' W 118°16'0 0.0
2015-Feb-26 22:33N 33°44' W 118°16'0 0.0
2015-Feb-26 21:33N 33°44' W 118°16'0 0.0
2015-Feb-26 20:34N 33°44' W 118°16'0 0.0
2015-Feb-26 19:31N 33°44' W 118°16'0 0.0
2015-Feb-26 16:23N 33°44' W 118°16'1 0.6
2015-Feb-26 14:23N 33°45' W 118°16'0 0.5
2015-Feb-26 13:34N 33°45' W 118°16'2 2.2
2015-Feb-26 12:34N 33°43' W 118°15'2 1.6
2015-Feb-26 11:33N 33°43' W 118°13'1 1.0
2015-Feb-26 10:33N 33°43' W 118°14'1 1.4
2015-Feb-26 09:33N 33°44' W 118°16'0 0.0
2015-Feb-26 08:33N 33°44' W 118°16'0 0.0
2015-Feb-26 07:33N 33°44' W 118°16'0 0.2
2015-Feb-26 06:33N 33°44' W 118°16'3 2.6
2015-Feb-26 05:33N 33°41' W 118°14'3 2.7
2015-Feb-26 04:33N 33°44' W 118°16'0 0.0
2015-Feb-26 03:33N 33°44' W 118°16'0 0.3
2015-Feb-26 02:33N 33°44' W 118°16'2 2.0
2015-Feb-26 01:34N 33°45' W 118°16'0 0.1
2015-Feb-26 00:33N 33°45' W 118°16'1 0.8
2015-Feb-25 23:32N 33°46' W 118°17'3 3.4
2015-Feb-25 22:34N 33°43' W 118°15'2 1.7
2015-Feb-25 21:33N 33°44' W 118°16'0 0.0
2015-Feb-25 20:33N 33°44' W 118°16'3 3.5
2015-Feb-25 19:33N 33°46' W 118°13'1 1.4
2015-Feb-25 18:31N 33°45' W 118°13'3 1.0
2015-Feb-25 15:32N 33°46' W 118°17'4 1.9
2015-Feb-25 13:30N 33°44' W 118°12'2 1.9
2015-Feb-25 12:33N 33°46' W 118°13'0 0.0
2015-Feb-25 11:33N 33°46' W 118°13'2 1.8
2015-Feb-25 10:28N 33°44' W 118°14'2 0.9
2015-Feb-25 08:33N 33°44' W 118°16'0 0.0
2015-Feb-25 07:29N 33°44' W 118°16'0 0.0
2015-Feb-25 06:08N 33°44' W 118°16'2 3.9
2015-Feb-25 05:33N 33°44' W 118°13'1 1.3
2015-Feb-25 04:32N 33°45' W 118°12'0 0.0
2015-Feb-25 03:33N 33°45' W 118°12'0 0.0
2015-Feb-25 02:33N 33°45' W 118°12'3 2.8
2015-Feb-25 01:33N 33°46' W 118°15'3 2.7
2015-Feb-25 00:33N 33°43' W 118°16'1 0.7
2015-Feb-24 23:33N 33°44' W 118°17'2 1.9
2015-Feb-24 22:33N 33°43' W 118°15'3 2.7
2015-Feb-24 21:33N 33°45' W 118°12'3 3.1
2015-Feb-24 20:33N 33°44' W 118°09'5 1.3
2015-Feb-24 16:33N 33°44' W 118°15'1 1.0
2015-Feb-24 15:11N 33°45' W 118°16'2 3.2
2015-Feb-24 14:33N 33°46' W 118°14'  
Track history (hours):
 
Tides and Currents Weather Stations Pressure Air Temp Water Temp Dewpoint Dewpoint Depression Visibility Wind Speed Wind Dir Waves Ship Positions

Tim Quigg

Owner: Harley Marine Services, Inc, Seattle, WA. More information available from US FCC via Universal Licensing System and Coast Guard Vessel Documentation Center.

Last reported at 2015-Mar-06 13:33 UTC. Time now 2015-Mar-06 14:17 UTC.
Position N 33°45' W 118°13'.

; draft 7.5 m.

Type: Tug. MMSI: 366926740.

Date/timePositionNaut miles runAvg speedWind from/ knotsBaromVisibWave heightAir tempDewpointWater temp
2015-Mar-06 13:33N 33°45' W 118°13'2 1.5
2015-Mar-06 12:33N 33°45' W 118°14'2 1.5
2015-Mar-06 11:34N 33°44' W 118°13'1 0.6
2015-Mar-06 10:34N 33°45' W 118°13'0 0.0
2015-Mar-06 09:33N 33°45' W 118°13'0 0.0
2015-Mar-06 08:33N 33°45' W 118°13'0 0.5
2015-Mar-06 07:33N 33°45' W 118°13'0 0.1
2015-Mar-06 06:33N 33°45' W 118°13'3 2.5
2015-Mar-06 05:15N 33°44' W 118°10'5 1.7
2015-Mar-06 02:23N 33°44' W 118°16'2 2.0
2015-Mar-06 01:34N 33°43' W 118°14'2 2.3
2015-Mar-06 00:32N 33°45' W 118°12'0 0.0
2015-Mar-05 23:32N 33°45' W 118°12'1 1.5
2015-Mar-05 22:33N 33°46' W 118°13'0 0.5
2015-Mar-05 21:33N 33°46' W 118°13'2 0.7
2015-Mar-05 18:33N 33°46' W 118°16'2 1.2
2015-Mar-05 17:06N 33°44' W 118°16'0 0.0
2015-Mar-05 16:21N 33°44' W 118°16'0 0.0
2015-Mar-05 15:33N 33°44' W 118°16'1 0.9
2015-Mar-05 14:33N 33°43' W 118°16'2 2.5
2015-Mar-05 13:33N 33°45' W 118°16'3 3.0
2015-Mar-05 12:33N 33°43' W 118°15'1 1.4
2015-Mar-05 11:33N 33°44' W 118°16'0 0.2
2015-Mar-05 10:33N 33°44' W 118°16'2 2.0
2015-Mar-05 09:23N 33°44' W 118°13'2 2.8
2015-Mar-05 08:32N 33°44' W 118°16'0 0.1
2015-Mar-05 07:29N 33°44' W 118°16'0 0.0
2015-Mar-05 05:26N 33°44' W 118°16'0 0.0
2015-Mar-05 03:33N 33°44' W 118°16'0 0.2
2015-Mar-05 02:34N 33°44' W 118°16'3 2.9
2015-Mar-05 01:33N 33°46' W 118°13'0 0.0
2015-Mar-05 00:33N 33°46' W 118°13'1 1.4
2015-Mar-04 23:33N 33°45' W 118°12'0 0.0
2015-Mar-04 22:32N 33°45' W 118°12'0 0.0
2015-Mar-04 21:17N 33°45' W 118°12'0 0.0
2015-Mar-04 20:33N 33°45' W 118°12'0 0.0
2015-Mar-04 19:32N 33°45' W 118°12'1 0.9
2015-Mar-04 18:33N 33°45' W 118°13'0 0.1
2015-Mar-04 14:28N 33°45' W 118°12'1 0.9
2015-Mar-04 13:33N 33°45' W 118°13'1 0.7
2015-Mar-04 12:33N 33°46' W 118°13'1 1.1
2015-Mar-04 11:34N 33°45' W 118°13'0 0.0
2015-Mar-04 10:33N 33°45' W 118°13'0 0.0
2015-Mar-04 09:34N 33°45' W 118°13'2 0.4
2015-Mar-04 03:33N 33°45' W 118°16'0 0.4
2015-Mar-04 02:32N 33°46' W 118°16'0 0.0
2015-Mar-04 01:33N 33°46' W 118°16'0 0.0
2015-Mar-04 00:31N 33°46' W 118°16'0 0.0
2015-Mar-03 23:14N 33°46' W 118°16'3 2.8
2015-Mar-03 22:18N 33°45' W 118°13'1 0.3
2015-Mar-03 20:14N 33°44' W 118°12'3 4.7
2015-Mar-03 19:33N 33°44' W 118°09'6 3.1
2015-Mar-03 17:33N 33°46' W 118°16'1 0.6
2015-Mar-03 16:04N 33°45' W 118°16'0 0.4
2015-Mar-03 15:28N 33°45' W 118°16'0 0.1
2015-Mar-03 13:33N 33°45' W 118°16'2 0.2
2015-Mar-03 05:07N 33°45' W 118°14'1 1.4
2015-Mar-03 04:33N 33°45' W 118°13'2 0.2
2015-Mar-02 17:33N 33°44' W 118°16'0 0.0
2015-Mar-02 16:07N 33°44' W 118°16'3 4.9
2015-Mar-02 15:33N 33°46' W 118°13'1 1.1
2015-Mar-02 14:33N 33°45' W 118°13'0 0.5
2015-Mar-02 13:33N 33°45' W 118°13'1 0.7
2015-Mar-02 12:33N 33°45' W 118°13'0 0.1
2015-Mar-02 11:33N 33°45' W 118°13'3 2.5
2015-Mar-02 10:26N 33°44' W 118°16'0 0.0
2015-Mar-02 09:32N 33°44' W 118°16'2 1.6
2015-Mar-02 08:33N 33°45' W 118°16'0 0.3
2015-Mar-02 07:33N 33°46' W 118°16'1 0.1
2015-Mar-02 02:04N 33°45' W 118°16'0 0.1
2015-Mar-02 00:07N 33°45' W 118°16'1 0.9
2015-Mar-01 23:33N 33°45' W 118°17'3 0.3
2015-Mar-01 13:32N 33°44' W 118°13'2 2.3
2015-Mar-01 12:33N 33°46' W 118°13'0 0.1
2015-Mar-01 11:33N 33°46' W 118°13'1 0.7
2015-Mar-01 10:33N 33°45' W 118°13'0 0.1
2015-Mar-01 09:33N 33°45' W 118°13'2 1.2
2015-Mar-01 08:05N 33°44' W 118°12'1 1.5
2015-Mar-01 07:33N 33°44' W 118°13'2 0.2
2015-Feb-28 21:30N 33°44' W 118°16'2 2.5
2015-Feb-28 20:33N 33°44' W 118°13'2 1.4
2015-Feb-28 19:17N 33°45' W 118°11'5 6.4
2015-Feb-28 18:33N 33°44' W 118°17'1 0.4
2015-Feb-28 15:25N 33°45' W 118°16'0 0.2
2015-Feb-28 12:19N 33°46' W 118°16'3 3.3
2015-Feb-28 11:33N 33°46' W 118°13'3 0.4
2015-Feb-28 04:11N 33°46' W 118°16'0 0.0
2015-Feb-27 15:33N 33°46' W 118°16'5 4.4
2015-Feb-27 14:18N 33°44' W 118°10'6 5.5
2015-Feb-27 13:15N 33°45' W 118°16'1 1.2
2015-Feb-27 12:33N 33°46' W 118°15'0 0.1
2015-Feb-27 11:33N 33°46' W 118°16'0 0.0
2015-Feb-27 10:31N 33°46' W 118°16'0 0.0
2015-Feb-27 09:33N 33°46' W 118°16'0 0.0
2015-Feb-27 08:33N 33°46' W 118°16'3 2.7
2015-Feb-27 07:32N 33°43' W 118°16'1 0.7
2015-Feb-27 06:33N 33°44' W 118°16'2 1.4
2015-Feb-27 05:26N 33°45' W 118°16'1 0.6
2015-Feb-27 04:32N 33°45' W 118°17'2 2.4
2015-Feb-27 03:34N 33°45' W 118°14'0 0.2
2015-Feb-27 02:33N 33°45' W 118°14'2 2.1
2015-Feb-27 01:33N 33°43' W 118°14'2 1.5
2015-Feb-27 00:33N 33°44' W 118°16'0 0.0
2015-Feb-26 23:06N 33°44' W 118°16'0 0.0
2015-Feb-26 22:33N 33°44' W 118°16'0 0.0
2015-Feb-26 21:33N 33°44' W 118°16'0 0.0
2015-Feb-26 20:34N 33°44' W 118°16'0 0.0
2015-Feb-26 19:31N 33°44' W 118°16'0 0.0
2015-Feb-26 16:23N 33°44' W 118°16'1 0.6
2015-Feb-26 14:23N 33°45' W 118°16'0 0.5
2015-Feb-26 13:34N 33°45' W 118°16'2 2.2
2015-Feb-26 12:34N 33°43' W 118°15'2 1.6
2015-Feb-26 11:33N 33°43' W 118°13'1 1.0
2015-Feb-26 10:33N 33°43' W 118°14'1 1.4
2015-Feb-26 09:33N 33°44' W 118°16'0 0.0
2015-Feb-26 08:33N 33°44' W 118°16'0 0.0
2015-Feb-26 07:33N 33°44' W 118°16'0 0.2
2015-Feb-26 06:33N 33°44' W 118°16'3 2.6
2015-Feb-26 05:33N 33°41' W 118°14'3 2.7
2015-Feb-26 04:33N 33°44' W 118°16'0 0.0
2015-Feb-26 03:33N 33°44' W 118°16'0 0.3
2015-Feb-26 02:33N 33°44' W 118°16'2 2.0
2015-Feb-26 01:34N 33°45' W 118°16'0 0.1
2015-Feb-26 00:33N 33°45' W 118°16'1 0.8
2015-Feb-25 23:32N 33°46' W 118°17'3 3.4
2015-Feb-25 22:34N 33°43' W 118°15'2 1.7
2015-Feb-25 21:33N 33°44' W 118°16'0 0.0
2015-Feb-25 20:33N 33°44' W 118°16'3 3.5
2015-Feb-25 19:33N 33°46' W 118°13'1 1.4
2015-Feb-25 18:31N 33°45' W 118°13'3 1.0
2015-Feb-25 15:32N 33°46' W 118°17'4 1.9
2015-Feb-25 13:30N 33°44' W 118°12'2 1.9
2015-Feb-25 12:33N 33°46' W 118°13'0 0.0
2015-Feb-25 11:33N 33°46' W 118°13'2 1.8
2015-Feb-25 10:28N 33°44' W 118°14'2 0.9
2015-Feb-25 08:33N 33°44' W 118°16'0 0.0
2015-Feb-25 07:29N 33°44' W 118°16'0 0.0
2015-Feb-25 06:08N 33°44' W 118°16'2 3.9
2015-Feb-25 05:33N 33°44' W 118°13'1 1.3
2015-Feb-25 04:32N 33°45' W 118°12'0 0.0
2015-Feb-25 03:33N 33°45' W 118°12'0 0.0
2015-Feb-25 02:33N 33°45' W 118°12'3 2.8
2015-Feb-25 01:33N 33°46' W 118°15'3 2.7
2015-Feb-25 00:33N 33°43' W 118°16'1 0.7
2015-Feb-24 23:33N 33°44' W 118°17'2 1.9
2015-Feb-24 22:33N 33°43' W 118°15'3 2.7
2015-Feb-24 21:33N 33°45' W 118°12'3 3.1
2015-Feb-24 20:33N 33°44' W 118°09'5 1.3
2015-Feb-24 16:33N 33°44' W 118°15'1 1.0
2015-Feb-24 15:11N 33°45' W 118°16'2 3.2
2015-Feb-24 14:33N 33°46' W 118°14'  

Dump ship's entire track history